Time;durP1;ratioP1;P1;durP2;ratioP2;P2;SDS_P1;SDS_P2;PMS_P1;PMS_P2;Temp;Humidity;BMP_temperature;BMP_pressure;BME280_temperature;BME280_humidity;BME280_pressure;Samples;Min_cycle;Max_cycle;Signal;HPM_P1;HPM_P2
2021/01/12 00:00:32;;;;;;;186.35;85.35;;;1.40;99.90;;;;;;5052391;28;20063;-77
2021/01/12 00:02:59;;;;;;;187.05;85.10;;;1.40;99.90;;;;;;5053857;28;20021;-76
2021/01/12 00:05:25;;;;;;;195.48;87.45;;;1.40;99.90;;;;;;5053698;28;20103;-76
2021/01/12 00:07:51;;;;;;;200.73;87.00;;;1.40;99.90;;;;;;5053562;28;20063;-76
2021/01/12 00:10:21;;;;;;;201.20;86.10;;;1.40;99.90;;;;;;5053671;28;20110;-76
2021/01/12 00:12:47;;;;;;;187.15;80.60;;;1.40;99.90;;;;;;5053422;28;20498;-76
2021/01/12 00:15:14;;;;;;;190.50;81.63;;;1.40;99.90;;;;;;5052109;28;20490;-76
2021/01/12 00:17:39;;;;;;;198.88;84.60;;;1.40;99.90;;;;;;5054149;28;20349;-77
2021/01/12 00:20:09;;;;;;;192.23;84.57;;;1.30;99.90;;;;;;5055057;28;20024;-77
2021/01/12 00:22:35;;;;;;;193.40;83.68;;;1.40;99.90;;;;;;5054715;28;20031;-76
2021/01/12 00:25:02;;;;;;;190.23;84.95;;;1.30;99.90;;;;;;5054603;28;20033;-77
2021/01/12 00:27:28;;;;;;;177.00;81.03;;;1.30;99.90;;;;;;5054564;28;20025;-77
2021/01/12 00:29:53;;;;;;;221.95;89.97;;;1.40;99.90;;;;;;5062201;28;20039;-77
2021/01/12 00:32:30;;;;;;;199.10;89.18;;;1.30;99.90;;;;;;5074412;28;20033;-77
2021/01/12 00:34:56;;;;;;;208.70;90.05;;;1.30;99.90;;;;;;5074562;28;20051;-77
2021/01/12 00:37:24;;;;;;;201.82;84.03;;;1.30;99.90;;;;;;5074149;28;20404;-77
2021/01/12 00:39:50;;;;;;;188.32;84.88;;;1.30;99.90;;;;;;5074349;28;20050;-76
2021/01/12 00:42:17;;;;;;;189.80;78.63;;;1.30;99.90;;;;;;5074214;28;20099;-76
2021/01/12 00:44:43;;;;;;;178.85;71.85;;;1.30;99.90;;;;;;5074179;28;20059;-76
2021/01/12 00:47:09;;;;;;;196.93;77.25;;;1.30;99.90;;;;;;5074205;28;20051;-77
2021/01/12 00:49:35;;;;;;;179.13;73.47;;;1.30;99.90;;;;;;5055881;28;20036;-76
2021/01/12 00:52:06;;;;;;;170.82;70.63;;;1.30;99.90;;;;;;5073852;28;20438;-77
2021/01/12 00:54:31;;;;;;;;;;;1.30;99.90;;;;;;5074367;28;20406;-77
2021/01/12 00:56:57;;;;;;;203.93;81.60;;;1.30;99.90;;;;;;5073859;28;19911;-76
2021/01/12 00:59:23;;;;;;;190.77;79.75;;;1.30;99.90;;;;;;5056075;28;20024;-76
2021/01/12 01:01:49;;;;;;;201.38;79.97;;;1.30;99.90;;;;;;5074000;28;20025;-77
2021/01/12 01:04:16;;;;;;;193.68;76.57;;;1.30;99.90;;;;;;5073922;28;20021;-76
2021/01/12 01:06:43;;;;;;;177.75;70.63;;;1.30;99.90;;;;;;5073851;28;20450;-77
2021/01/12 01:09:10;;;;;;;182.05;73.05;;;1.30;99.90;;;;;;5073862;28;20078;-77
2021/01/12 01:11:49;;;;;;;179.63;71.35;;;1.30;99.90;;;;;;5072883;28;20025;-77
2021/01/12 01:14:16;;;;;;;186.40;75.65;;;1.30;99.90;;;;;;5073650;28;20030;-77
2021/01/12 01:16:42;;;;;;;182.32;71.80;;;1.30;99.90;;;;;;5055525;28;20034;-76
2021/01/12 01:19:09;;;;;;;174.00;73.75;;;1.30;99.90;;;;;;5073579;28;20017;-77
2021/01/12 01:21:35;;;;;;;194.23;78.07;;;1.30;99.90;;;;;;5073828;28;20460;-78
2021/01/12 01:24:01;;;;;;;166.57;68.72;;;1.30;99.90;;;;;;5073846;28;20024;-77
2021/01/12 01:26:27;;;;;;;169.35;66.80;;;1.30;99.90;;;;;;5073644;28;20029;-76
2021/01/12 01:28:54;;;;;;;187.38;71.68;;;1.30;99.90;;;;;;5073625;28;20028;-76
2021/01/12 01:31:20;;;;;;;162.50;65.72;;;1.30;99.90;;;;;;5073244;28;20052;-77
2021/01/12 01:33:47;;;;;;;171.55;64.20;;;1.30;99.90;;;;;;5073241;28;20092;-76
2021/01/12 01:36:13;;;;;;;180.77;69.28;;;1.30;99.90;;;;;;5073146;28;20070;-76
2021/01/12 01:38:39;;;;;;;163.57;64.82;;;1.30;99.90;;;;;;5073082;28;20024;-76
2021/01/12 01:41:06;;;;;;;161.60;66.57;;;1.30;99.90;;;;;;5073121;28;20021;-76
2021/01/12 01:43:34;;;;;;;170.10;67.03;;;1.30;99.90;;;;;;5073017;28;20065;-76
2021/01/12 01:46:00;;;;;;;171.57;69.25;;;1.30;99.90;;;;;;5072942;28;20052;-77
2021/01/12 01:48:26;;;;;;;192.60;75.13;;;1.30;99.90;;;;;;5055051;28;20055;-76
2021/01/12 01:50:51;;;;;;;164.75;63.90;;;1.30;99.90;;;;;;5072962;28;20364;-76
2021/01/12 01:53:17;;;;;;;171.38;70.35;;;1.30;99.90;;;;;;5054707;28;20029;-76
2021/01/12 01:55:50;;;;;;;166.25;71.63;;;1.30;99.90;;;;;;5072396;28;20488;-76
2021/01/12 01:58:16;;;;;;;156.93;61.97;;;1.30;99.90;;;;;;5072454;28;20020;-76
2021/01/12 02:00:42;;;;;;;157.10;65.30;;;1.30;99.90;;;;;;5072311;28;20472;-76
2021/01/12 02:03:12;;;;;;;166.20;70.50;;;1.30;99.90;;;;;;5054294;28;20040;-76
2021/01/12 02:05:48;;;;;;;157.35;65.72;;;1.30;99.90;;;;;;5072360;28;20099;-76
2021/01/12 02:08:22;;;;;;;149.43;64.85;;;1.30;99.90;;;;;;5054455;28;20491;-76
2021/01/12 02:10:50;;;;;;;161.05;67.63;;;1.30;99.90;;;;;;5072117;28;20061;-76
2021/01/12 02:13:19;;;;;;;163.93;70.63;;;1.30;99.90;;;;;;5072047;28;20101;-76
2021/01/12 02:15:46;;;;;;;159.07;68.20;;;1.30;99.90;;;;;;5072132;28;20150;-76
2021/01/12 02:18:12;;;;;;;163.65;69.03;;;1.30;99.90;;;;;;5054166;28;20020;-76
2021/01/12 02:20:41;;;;;;;155.80;67.55;;;1.20;99.90;;;;;;5071969;28;20028;-76
2021/01/12 02:23:16;;;;;;;159.40;70.45;;;1.30;99.90;;;;;;5071090;28;20157;-76
2021/01/12 02:25:43;;;;;;;157.82;68.03;;;1.20;99.90;;;;;;5071756;28;20107;-76
2021/01/12 02:28:10;;;;;;;160.57;68.95;;;1.20;99.90;;;;;;5071761;28;20028;-76
2021/01/12 02:30:38;;;;;;;154.52;67.80;;;1.20;99.90;;;;;;5053554;28;20412;-76
2021/01/12 02:33:05;;;;;;;156.15;68.55;;;1.20;99.90;;;;;;5053718;28;20356;-76
2021/01/12 02:35:34;;;;;;;162.75;64.85;;;1.20;99.90;;;;;;5071789;28;20027;-76
2021/01/12 02:38:02;;;;;;;144.73;62.30;;;1.20;99.90;;;;;;5053671;28;20095;-76
2021/01/12 02:40:29;;;;;;;153.73;63.45;;;1.20;99.90;;;;;;5071872;28;20029;-77
2021/01/12 02:42:55;;;;;;;168.90;72.50;;;1.20;99.90;;;;;;5071791;28;20025;-76
2021/01/12 02:45:21;;;;;;;151.88;66.88;;;1.20;99.90;;;;;;5071868;28;20029;-76
2021/01/12 02:47:48;;;;;;;153.48;67.68;;;1.20;99.90;;;;;;5071878;28;20028;-76
2021/01/12 02:50:15;;;;;;;155.43;68.18;;;1.20;99.90;;;;;;5071778;28;20107;-76
2021/01/12 02:52:44;;;;;;;165.65;68.50;;;1.10;99.90;;;;;;5071790;28;20044;-77
2021/01/12 02:55:14;;;;;;;151.98;63.75;;;1.20;99.90;;;;;;5071483;28;20031;-77
2021/01/12 02:57:40;;;;;;;144.25;66.75;;;1.10;99.90;;;;;;5071607;28;20016;-77
2021/01/12 03:00:09;;;;;;;147.82;64.68;;;1.20;99.90;;;;;;5071389;28;20027;-76
2021/01/12 03:02:35;;;;;;;131.60;60.75;;;1.10;99.90;;;;;;5053526;28;20028;-76
2021/01/12 03:05:02;;;;;;;153.00;68.43;;;1.20;99.90;;;;;;5071334;28;20032;-76
2021/01/12 03:07:27;;;;;;;160.60;68.15;;;1.20;99.90;;;;;;5071291;28;20023;-76
2021/01/12 03:09:53;;;;;;;138.57;61.00;;;1.10;99.90;;;;;;5071313;28;20099;-76
2021/01/12 03:12:19;;;;;;;139.07;65.03;;;1.10;99.90;;;;;;5071271;28;20036;-76
2021/01/12 03:14:45;;;;;;;134.48;61.38;;;1.10;99.90;;;;;;5052931;28;20036;-76
2021/01/12 03:17:13;;;;;;;133.18;62.25;;;1.20;99.90;;;;;;5053277;28;20028;-76
2021/01/12 03:19:42;;;;;;;147.40;66.65;;;1.10;99.90;;;;;;5071912;28;20376;-77
2021/01/12 03:22:09;;;;;;;134.85;62.53;;;1.20;99.90;;;;;;5071880;28;20024;-78
2021/01/12 03:24:35;;;;;;;167.68;72.63;;;1.10;99.90;;;;;;5071674;28;20379;-77
2021/01/12 03:27:01;;;;;;;150.13;66.07;;;1.20;99.90;;;;;;5071513;28;20444;-77
2021/01/12 03:29:27;;;;;;;149.98;64.63;;;1.10;99.90;;;;;;5071268;28;20111;-77
2021/01/12 03:31:53;;;;;;;142.65;67.85;;;1.10;99.90;;;;;;5071311;28;20480;-77
2021/01/12 03:34:18;;;;;;;152.00;70.78;;;1.20;99.90;;;;;;5072830;28;20025;-76
2021/01/12 03:36:44;;;;;;;137.95;66.10;;;1.10;99.90;;;;;;5078022;28;20028;-77
2021/01/12 03:39:10;;;;;;;138.60;62.92;;;1.10;99.90;;;;;;5078080;28;20444;-78
2021/01/12 03:41:36;;;;;;;151.63;67.00;;;1.20;99.90;;;;;;5078222;28;20414;-77
2021/01/12 03:44:02;;;;;;;141.32;67.13;;;1.10;99.90;;;;;;5078253;28;20055;-77
2021/01/12 03:46:28;;;;;;;149.70;68.28;;;1.10;99.90;;;;;;5078362;28;20111;-77
2021/01/12 03:48:54;;;;;;;147.10;66.88;;;1.10;99.90;;;;;;5078476;28;20028;-77
2021/01/12 03:51:23;;;;;;;147.82;66.10;;;1.10;99.90;;;;;;5060262;28;20105;-78
2021/01/12 03:53:48;;;;;;;132.68;63.10;;;1.10;99.90;;;;;;5078498;28;20017;-78
2021/01/12 03:56:14;;;;;;;140.35;65.15;;;1.10;99.90;;;;;;5078489;28;20614;-77
2021/01/12 03:58:41;;;;;;;132.50;59.92;;;1.10;99.90;;;;;;5060239;28;20025;-77
2021/01/12 04:01:07;;;;;;;139.20;64.65;;;1.10;99.90;;;;;;5077732;28;20098;-77
2021/01/12 04:03:33;;;;;;;141.93;67.03;;;1.10;99.90;;;;;;5077951;28;20067;-77
2021/01/12 04:06:09;;;;;;;134.63;63.22;;;1.10;99.90;;;;;;5078512;28;20056;-78
2021/01/12 04:08:35;;;;;;;137.95;63.85;;;1.10;99.90;;;;;;5079224;28;20099;-78
2021/01/12 04:11:02;;;;;;;143.02;60.50;;;1.10;99.90;;;;;;5061031;28;20028;-78
2021/01/12 04:13:28;;;;;;;132.95;62.45;;;1.10;99.90;;;;;;5079219;28;20024;-78
2021/01/12 04:15:54;;;;;;;122.25;60.22;;;1.10;99.90;;;;;;5079104;28;20024;-78
2021/01/12 04:18:19;;;;;;;146.63;66.90;;;1.10;99.90;;;;;;5060736;28;20111;-78
2021/01/12 04:20:45;;;;;;;124.88;59.13;;;1.10;99.90;;;;;;5079103;28;20033;-78
2021/01/12 04:23:11;;;;;;;120.68;56.40;;;1.10;99.90;;;;;;5078957;28;20032;-78
2021/01/12 04:25:38;;;;;;;115.68;56.70;;;1.20;99.90;;;;;;5078891;28;20125;-78
2021/01/12 04:28:05;;;;;;;124.25;57.00;;;1.10;99.90;;;;;;5078871;28;20063;-78
2021/01/12 04:30:31;;;;;;;143.32;62.78;;;1.20;99.90;;;;;;5078482;28;20090;-78
2021/01/12 04:32:57;;;;;;;129.70;60.05;;;1.20;99.90;;;;;;5078544;28;20163;-78
2021/01/12 04:35:23;;;;;;;136.00;64.15;;;1.10;99.90;;;;;;5078735;28;20071;-78
2021/01/12 04:37:49;;;;;;;135.98;65.30;;;1.20;99.90;;;;;;5078918;28;20052;-78
2021/01/12 04:40:15;;;;;;;135.98;68.70;;;1.10;99.90;;;;;;5061231;28;20021;-78
2021/01/12 04:42:42;;;;;;;141.73;68.95;;;1.10;99.90;;;;;;5078987;28;20028;-78
2021/01/12 04:45:09;;;;;;;150.73;68.75;;;1.10;99.90;;;;;;5078288;28;20471;-78
2021/01/12 04:47:34;;;;;;;138.80;67.43;;;1.10;99.90;;;;;;5074444;28;20078;-78
2021/01/12 04:50:05;;;;;;;154.55;74.00;;;1.10;99.90;;;;;;5075686;28;20020;-78
2021/01/12 04:52:42;;;;;;;145.27;67.72;;;1.10;99.90;;;;;;5075404;28;20089;-78
2021/01/12 04:55:08;;;;;;;150.32;67.80;;;1.00;99.90;;;;;;5057320;28;20036;-78
2021/01/12 04:57:34;;;;;;;145.65;69.50;;;1.10;99.90;;;;;;5075085;28;20483;-78
2021/01/12 05:00:00;;;;;;;136.18;64.32;;;1.10;99.90;;;;;;5075209;28;20103;-78
2021/01/12 05:02:26;;;;;;;151.27;66.95;;;1.10;99.90;;;;;;5075042;28;20104;-78
2021/01/12 05:04:54;;;;;;;140.98;62.50;;;1.00;99.90;;;;;;5056861;28;20025;-78
2021/01/12 05:07:20;;;;;;;143.65;65.95;;;1.10;99.90;;;;;;5074760;28;20032;-78
2021/01/12 05:09:46;;;;;;;175.13;83.13;;;1.00;99.90;;;;;;5075009;28;20089;-78
2021/01/12 05:12:14;;;;;;;159.48;75.63;;;1.00;99.90;;;;;;5074813;28;20036;-78
2021/01/12 05:14:42;;;;;;;159.57;77.00;;;1.00;99.90;;;;;;5074642;28;20021;-77
2021/01/12 05:17:11;;;;;;;230.45;110.40;;;1.00;99.90;;;;;;5056616;28;20107;-78
2021/01/12 05:19:40;;;;;;;272.75;132.40;;;1.00;99.90;;;;;;5056014;28;20031;-77
2021/01/12 05:22:06;;;;;;;258.70;129.45;;;1.10;99.90;;;;;;5074201;28;20483;-77
2021/01/12 05:24:42;;;;;;;193.60;100.15;;;1.00;99.90;;;;;;5074352;28;20384;-78
2021/01/12 05:27:10;;;;;;;165.43;81.32;;;1.10;99.90;;;;;;5074176;28;20098;-77
2021/01/12 05:29:38;;;;;;;219.27;106.47;;;1.00;99.90;;;;;;5074303;28;20048;-78
2021/01/12 05:32:07;;;;;;;255.70;112.45;;;1.10;99.90;;;;;;5074160;28;20032;-78
2021/01/12 05:34:38;;;;;;;321.48;154.93;;;1.10;99.90;;;;;;5074299;28;20048;-78
2021/01/12 05:37:06;;;;;;;218.02;101.07;;;1.00;99.90;;;;;;5056220;28;20028;-78
2021/01/12 05:39:41;;;;;;;178.00;90.03;;;1.00;99.90;;;;;;5074380;28;20027;-78
2021/01/12 05:42:10;;;;;;;155.48;78.50;;;1.10;99.90;;;;;;5074265;28;20025;-78
2021/01/12 05:44:41;;;;;;;177.60;82.60;;;1.10;99.90;;;;;;5074424;28;20022;-78
2021/01/12 05:47:13;;;;;;;167.13;79.30;;;1.10;99.90;;;;;;5074087;28;20031;-78
2021/01/12 05:49:43;;;;;;;135.65;69.60;;;1.00;99.90;;;;;;5074200;28;20028;-78
2021/01/12 05:52:10;;;;;;;145.25;70.07;;;1.00;99.90;;;;;;5073444;28;20021;-77
2021/01/12 05:54:37;;;;;;;137.65;62.80;;;1.00;99.90;;;;;;5073592;28;20025;-77
2021/01/12 05:57:07;;;;;;;131.90;65.18;;;1.00;99.90;;;;;;5073376;28;20020;-77
2021/01/12 05:59:37;;;;;;;146.88;69.45;;;1.00;99.90;;;;;;5073564;28;20066;-77
2021/01/12 06:02:09;;;;;;;157.90;69.97;;;1.00;99.90;;;;;;5073645;28;20029;-78
2021/01/12 06:04:35;;;;;;;173.40;82.90;;;1.00;99.90;;;;;;5073662;28;20109;-77
2021/01/12 06:07:02;;;;;;;173.13;78.78;;;1.00;99.90;;;;;;5073579;28;20036;-78
2021/01/12 06:09:28;;;;;;;161.10;73.18;;;1.00;99.90;;;;;;5073787;28;20025;-78
2021/01/12 06:11:56;;;;;;;152.68;75.82;;;1.00;99.90;;;;;;5055771;28;20028;-78
2021/01/12 06:14:23;;;;;;;149.15;71.90;;;1.00;99.90;;;;;;5073630;28;20024;-78
2021/01/12 06:16:49;;;;;;;181.38;89.57;;;1.00;99.90;;;;;;5073242;28;20103;-78
2021/01/12 06:19:19;;;;;;;155.55;75.93;;;1.00;99.90;;;;;;5073551;28;20032;-78
2021/01/12 06:21:54;;;;;;;156.20;79.47;;;1.00;99.90;;;;;;5073636;28;20025;-78
2021/01/12 06:24:37;;;;;;;163.90;81.80;;;1.00;99.90;;;;;;5073253;28;20036;-78
2021/01/12 06:27:14;;;;;;;165.25;78.35;;;0.90;99.90;;;;;;5073323;28;20021;-78
2021/01/12 06:29:45;;;;;;;178.20;82.53;;;0.90;99.90;;;;;;5073623;28;20048;-78
2021/01/12 06:32:15;;;;;;;150.63;72.97;;;0.90;99.90;;;;;;5073250;28;20032;-78
2021/01/12 06:34:42;;;;;;;143.02;66.60;;;0.90;99.90;;;;;;5073508;28;20089;-77
2021/01/12 06:37:14;;;;;;;152.20;74.15;;;0.90;99.90;;;;;;5072885;28;20053;-77
2021/01/12 06:39:51;;;;;;;182.63;83.78;;;0.90;99.90;;;;;;5073091;28;20021;-78
2021/01/12 06:42:24;;;;;;;161.15;74.65;;;1.00;99.90;;;;;;5073173;28;20460;-77
2021/01/12 06:44:51;;;;;;;161.00;81.07;;;1.00;99.90;;;;;;5073021;28;20031;-77
2021/01/12 06:47:20;;;;;;;202.77;98.22;;;1.00;99.90;;;;;;5073146;28;20043;-78
2021/01/12 06:49:46;;;;;;;194.27;98.97;;;1.00;99.90;;;;;;5073048;28;20025;-78
2021/01/12 06:52:13;;;;;;;235.00;114.38;;;1.00;99.90;;;;;;5072839;28;20052;-77
2021/01/12 06:54:44;;;;;;;230.45;111.53;;;1.00;99.90;;;;;;5072787;28;20020;-77
2021/01/12 06:57:23;;;;;;;224.10;104.20;;;1.00;99.90;;;;;;5072864;28;20021;-78
2021/01/12 06:59:54;;;;;;;218.70;96.53;;;1.00;99.90;;;;;;5072626;28;20046;-77
2021/01/12 07:02:31;;;;;;;195.70;88.68;;;1.00;99.90;;;;;;5072314;28;20111;-77
2021/01/12 07:05:07;;;;;;;175.05;72.72;;;1.00;99.90;;;;;;5072736;28;20024;-78
2021/01/12 07:07:45;;;;;;;181.23;79.60;;;1.10;99.90;;;;;;5072642;28;20033;-78
2021/01/12 07:10:16;;;;;;;204.10;86.45;;;1.10;99.90;;;;;;5071870;28;20047;-76
2021/01/12 07:12:43;;;;;;;222.50;101.22;;;1.10;99.90;;;;;;5072133;28;20024;-77
2021/01/12 07:15:11;;;;;;;192.40;96.30;;;1.10;99.90;;;;;;5071888;28;20029;-77
2021/01/12 07:17:46;;;;;;;201.50;86.65;;;1.10;99.90;;;;;;5071522;28;20025;-77
2021/01/12 07:20:23;;;;;;;180.80;76.00;;;1.10;99.90;;;;;;5072007;28;20471;-77
2021/01/12 07:23:01;;;;;;;228.65;82.25;;;1.10;99.90;;;;;;5071666;28;20028;-78
2021/01/12 07:25:29;;;;;;;205.35;71.43;;;1.20;99.90;;;;;;5053629;28;20036;-76
2021/01/12 07:28:09;;;;;;;160.85;62.03;;;2.00;99.90;;;;;;5071354;28;20131;-74
2021/01/12 07:30:39;;;;;;;114.72;52.03;;;2.40;99.90;;;;;;5071605;28;20087;-75
2021/01/12 07:33:07;;;;;;;232.10;56.78;;;2.60;99.90;;;;;;5071678;28;20024;-76
2021/01/12 07:35:34;;;;;;;173.13;63.33;;;2.80;99.90;;;;;;5071078;28;20020;-75
2021/01/12 07:38:00;;;;;;;154.88;60.65;;;2.90;99.90;;;;;;5070894;28;20020;-78
2021/01/12 07:40:27;;;;;;;175.00;61.25;;;3.10;99.90;;;;;;5049506;28;20021;-77
2021/01/12 07:42:56;;;;;;;154.13;67.82;;;3.10;99.90;;;;;;5061663;28;20020;-78
2021/01/12 07:45:26;;;;;;;188.57;84.10;;;3.30;99.90;;;;;;5059914;28;20079;-77
2021/01/12 07:47:55;;;;;;;148.20;68.13;;;3.40;99.90;;;;;;5057539;28;20028;-78
2021/01/12 07:50:22;;;;;;;369.00;175.20;;;3.70;99.90;;;;;;5038541;28;20032;-78
2021/01/12 07:52:48;;;;;;;1503.75;732.10;;;4.20;99.90;;;;;;5059836;28;20020;-80
2021/01/12 07:55:14;;;;;;;419.75;211.82;;;4.70;99.90;;;;;;5053130;28;20025;-80
2021/01/12 07:57:41;;;;;;;205.23;94.72;;;3.90;99.90;;;;;;5052729;28;20013;-80
2021/01/12 08:00:09;;;;;;;257.75;106.45;;;3.50;99.90;;;;;;5052406;28;20029;-80
2021/01/12 08:02:36;;;;;;;214.65;95.78;;;3.00;99.90;;;;;;5052776;28;20025;-79
2021/01/12 08:05:06;;;;;;;354.23;145.02;;;2.60;99.90;;;;;;5052575;28;20056;-79
2021/01/12 08:07:32;;;;;;;291.67;124.35;;;2.40;99.90;;;;;;5034644;28;20029;-79
2021/01/12 08:09:59;;;;;;;385.77;187.43;;;2.40;99.90;;;;;;5052566;28;20358;-80
2021/01/12 08:12:26;;;;;;;185.15;88.65;;;3.10;99.90;;;;;;5053162;28;20465;-80
2021/01/12 08:14:54;;;;;;;181.32;79.53;;;2.70;99.90;;;;;;5052975;28;20423;-80
2021/01/12 08:17:28;;;;;;;180.25;80.60;;;2.50;99.90;;;;;;5052922;28;20480;-80
2021/01/12 08:19:55;;;;;;;189.35;83.95;;;2.50;99.90;;;;;;5034933;28;20025;-81
2021/01/12 08:22:24;;;;;;;152.95;64.10;;;2.40;99.90;;;;;;5054758;28;20365;-78
2021/01/12 08:24:50;;;;;;;157.48;74.18;;;2.40;99.90;;;;;;5056559;28;20029;-80
2021/01/12 08:27:20;;;;;;;155.40;69.88;;;2.30;99.90;;;;;;5056779;28;20124;-80
2021/01/12 08:29:47;;;;;;;152.05;65.85;;;2.30;99.90;;;;;;5038040;28;20174;-79
2021/01/12 08:32:19;;;;;;;149.65;68.07;;;2.20;99.90;;;;;;5056479;28;20554;-80
2021/01/12 08:35:06;;;;;;;146.00;61.72;;;2.00;99.90;;;;;;5056811;28;20020;-80
2021/01/12 08:37:39;;;;;;;166.82;74.78;;;2.00;99.90;;;;;;5056469;28;20055;-80
2021/01/12 08:40:11;;;;;;;165.98;73.22;;;1.90;99.90;;;;;;5056382;28;20028;-81
2021/01/12 08:42:38;;;;;;;159.82;70.68;;;2.00;99.90;;;;;;5038233;28;20814;-80
2021/01/12 08:45:15;;;;;;;164.18;72.43;;;2.00;99.90;;;;;;5056391;28;20029;-80
2021/01/12 08:47:41;;;;;;;136.63;63.78;;;2.10;99.90;;;;;;5056645;28;20017;-80
2021/01/12 08:50:09;;;;;;;145.73;62.47;;;2.20;99.90;;;;;;5056610;28;20025;-80
2021/01/12 08:52:37;;;;;;;142.32;60.30;;;2.10;99.90;;;;;;5056341;28;20025;-80
2021/01/12 08:55:14;;;;;;;154.77;64.05;;;2.10;99.90;;;;;;5056562;28;20032;-80
2021/01/12 08:57:40;;;;;;;185.60;86.30;;;2.10;99.90;;;;;;5054681;28;20025;-80
2021/01/12 09:00:14;;;;;;;139.35;63.92;;;2.80;99.90;;;;;;5068527;28;20024;-78
2021/01/12 09:02:40;;;;;;;173.35;75.60;;;2.70;99.90;;;;;;5095324;28;20016;-80
2021/01/12 09:05:10;;;;;;;171.30;74.55;;;2.70;99.90;;;;;;5095630;28;20027;-80
2021/01/12 09:07:36;;;;;;;146.13;62.17;;;2.60;99.90;;;;;;5045965;28;20143;-79
2021/01/12 09:10:02;;;;;;;141.48;61.70;;;2.60;99.90;;;;;;5047294;28;20104;-78
2021/01/12 09:12:28;;;;;;;165.65;75.22;;;2.50;99.90;;;;;;5046097;28;20029;-78
2021/01/12 09:14:54;;;;;;;203.93;88.68;;;2.50;99.90;;;;;;5063015;28;20024;-77
2021/01/12 09:17:21;;;;;;;181.95;77.97;;;2.50;99.90;;;;;;5064255;28;20486;-78
2021/01/12 09:19:52;;;;;;;172.77;75.75;;;2.50;99.90;;;;;;5063682;28;20017;-78
2021/01/12 09:22:20;;;;;;;191.07;82.70;;;2.50;99.90;;;;;;5062378;28;20021;-78
2021/01/12 09:24:53;;;;;;;195.80;86.78;;;2.50;99.90;;;;;;5045627;28;20031;-78
2021/01/12 09:27:26;;;;;;;164.35;74.75;;;2.40;99.90;;;;;;5043543;28;20028;-78
2021/01/12 09:29:52;;;;;;;161.02;70.53;;;2.50;99.90;;;;;;5054272;28;20048;-78
2021/01/12 09:32:30;;;;;;;172.63;74.78;;;2.50;99.90;;;;;;5053575;28;20044;-78
2021/01/12 09:34:56;;;;;;;217.93;96.22;;;2.50;99.90;;;;;;5054596;28;20021;-80
2021/01/12 09:37:23;;;;;;;166.05;68.75;;;2.50;99.90;;;;;;5054108;28;20055;-79
2021/01/12 09:39:53;;;;;;;228.68;95.43;;;2.50;99.90;;;;;;5036197;28;20049;-80
2021/01/12 09:42:26;;;;;;;194.63;86.40;;;2.50;99.90;;;;;;5054382;28;20027;-80
2021/01/12 09:44:53;;;;;;;215.80;98.55;;;2.40;99.90;;;;;;5054142;28;20087;-80
2021/01/12 09:47:20;;;;;;;175.70;78.43;;;2.50;99.90;;;;;;5054374;28;20059;-78
2021/01/12 09:49:46;;;;;;;160.30;75.78;;;2.50;99.90;;;;;;5054302;28;20711;-78
2021/01/12 09:52:13;;;;;;;122.88;57.88;;;2.50;99.90;;;;;;5035896;28;20079;-78
2021/01/12 09:54:45;;;;;;;147.63;66.43;;;2.60;99.90;;;;;;5053825;28;20689;-77
2021/01/12 09:57:14;;;;;;;125.50;57.58;;;3.00;99.90;;;;;;5053938;28;20423;-79
2021/01/12 09:59:40;;;;;;;142.00;61.60;;;3.00;99.90;;;;;;5053470;28;20059;-79
2021/01/12 10:02:08;;;;;;;122.82;57.63;;;2.80;99.90;;;;;;5054222;28;20032;-79
2021/01/12 10:04:34;;;;;;;131.55;66.68;;;2.80;99.90;;;;;;5054315;28;20025;-79
2021/01/12 10:07:23;;;;;;;151.48;74.03;;;2.70;99.90;;;;;;5060974;28;20027;-79
2021/01/12 10:09:49;;;;;;;129.00;58.38;;;2.70;99.90;;;;;;5064480;28;20031;-76
2021/01/12 10:12:15;;;;;;;126.18;55.97;;;2.60;99.90;;;;;;5071618;28;20024;-78
2021/01/12 10:14:40;;;;;;;143.77;66.47;;;2.60;99.90;;;;;;5072237;28;20067;-77
2021/01/12 10:17:08;;;;;;;220.10;107.35;;;2.50;99.90;;;;;;5066766;28;20024;-77
2021/01/12 10:19:34;;;;;;;137.25;67.95;;;2.40;99.90;;;;;;5062473;28;20025;-77
2021/01/12 10:22:00;;;;;;;106.15;51.17;;;2.40;99.90;;;;;;5062886;28;20020;-77
2021/01/12 10:24:26;;;;;;;111.22;52.33;;;2.30;99.90;;;;;;5060935;28;20052;-77
2021/01/12 10:26:54;;;;;;;127.43;63.25;;;2.30;99.90;;;;;;5043252;28;20033;-78
2021/01/12 10:29:21;;;;;;;122.57;57.92;;;2.40;99.90;;;;;;5062517;28;20497;-80
2021/01/12 10:31:48;;;;;;;132.70;61.70;;;2.50;99.90;;;;;;5073222;28;20071;-78
2021/01/12 10:34:14;;;;;;;123.80;57.00;;;2.50;99.90;;;;;;5069660;28;20023;-78
2021/01/12 10:36:40;;;;;;;103.05;50.08;;;2.40;99.90;;;;;;5072939;28;20424;-77
2021/01/12 10:39:05;;;;;;;107.32;49.75;;;2.40;99.90;;;;;;5060720;28;20622;-81
2021/01/12 10:41:38;;;;;;;114.75;52.50;;;2.40;99.90;;;;;;5052334;28;20465;-77
2021/01/12 10:44:04;;;;;;;119.25;52.65;;;2.80;99.90;;;;;;5053134;28;20032;-77
2021/01/12 10:46:30;;;;;;;138.38;68.68;;;2.70;99.90;;;;;;5071839;28;20407;-77
2021/01/12 10:48:55;;;;;;;169.38;81.40;;;2.50;99.90;;;;;;5053763;28;20039;-77
2021/01/12 10:51:21;;;;;;;199.63;101.88;;;2.50;99.90;;;;;;5056503;28;20855;-76
2021/01/12 10:53:47;;;;;;;204.85;118.07;;;2.40;99.90;;;;;;5053357;28;20490;-76
2021/01/12 10:56:16;;;;;;;145.38;79.63;;;2.40;99.90;;;;;;5065565;28;20024;-77
2021/01/12 10:58:42;;;;;;;140.35;69.47;;;2.40;99.90;;;;;;5071318;28;20920;-77
2021/01/12 11:01:13;;;;;;;129.80;58.95;;;2.40;99.90;;;;;;5070797;28;20115;-77
2021/01/12 11:03:39;;;;;;;125.25;54.63;;;2.40;99.90;;;;;;5055682;28;20032;-77
2021/01/12 11:06:04;;;;;;;149.65;72.20;;;2.40;99.90;;;;;;5051667;28;20041;-77
2021/01/12 11:08:31;;;;;;;154.70;72.03;;;2.40;99.90;;;;;;5051913;28;20021;-77
2021/01/12 11:10:56;;;;;;;128.60;57.53;;;2.50;99.90;;;;;;5058393;28;20690;-77
2021/01/12 11:13:29;;;;;;;120.20;51.03;;;2.50;99.90;;;;;;5051532;28;20032;-77
2021/01/12 11:15:58;;;;;;;124.40;55.25;;;2.50;99.90;;;;;;5051348;28;20028;-77
2021/01/12 11:18:25;;;;;;;172.23;71.22;;;2.40;99.90;;;;;;5052169;28;20032;-78
2021/01/12 11:20:52;;;;;;;200.48;95.97;;;3.00;99.90;;;;;;5051882;28;20021;-78
2021/01/12 11:23:18;;;;;;;159.90;77.78;;;2.80;99.90;;;;;;5054146;28;20013;-77
2021/01/12 11:25:44;;;;;;;145.68;65.90;;;2.70;99.90;;;;;;5051887;28;20090;-78
2021/01/12 11:28:10;;;;;;;122.82;56.42;;;2.70;99.90;;;;;;5065878;28;20028;-76
2021/01/12 11:30:36;;;;;;;137.32;60.15;;;2.50;99.90;;;;;;5052133;28;20044;-78
2021/01/12 11:33:06;;;;;;;136.20;61.53;;;2.60;99.90;;;;;;5033920;28;20021;-78
2021/01/12 11:35:32;;;;;;;139.10;65.60;;;2.60;99.90;;;;;;5052048;28;20385;-78
2021/01/12 11:37:58;;;;;;;142.23;65.97;;;2.50;99.90;;;;;;5052302;28;20093;-78
2021/01/12 11:40:24;;;;;;;127.43;58.90;;;2.50;99.90;;;;;;5054875;28;20025;-78
2021/01/12 11:42:51;;;;;;;129.77;59.45;;;2.70;99.90;;;;;;5051717;28;20013;-78
2021/01/12 11:45:17;;;;;;;120.95;55.17;;;2.60;99.90;;;;;;5051587;28;20457;-78
2021/01/12 11:47:43;;;;;;;112.30;50.25;;;2.60;99.90;;;;;;5051674;28;20029;-77
2021/01/12 11:50:10;;;;;;;131.65;62.10;;;2.50;99.90;;;;;;5051464;28;20031;-77
2021/01/12 11:52:36;;;;;;;127.32;59.28;;;2.60;99.90;;;;;;5068041;28;20795;-78
2021/01/12 11:55:04;;;;;;;138.88;61.90;;;2.60;99.90;;;;;;5071264;28;20040;-77
2021/01/12 11:57:30;;;;;;;176.23;74.97;;;2.50;99.90;;;;;;5065537;28;20036;-78
2021/01/12 11:59:56;;;;;;;152.25;64.63;;;2.60;99.90;;;;;;5055495;28;20025;-75
2021/01/12 12:02:22;;;;;;;138.50;63.58;;;2.60;99.90;;;;;;5036466;28;20124;-77
2021/01/12 12:04:48;;;;;;;164.93;68.78;;;2.60;99.90;;;;;;5059060;28;20582;-78
2021/01/12 12:07:13;;;;;;;194.85;81.55;;;2.60;99.90;;;;;;5073145;28;20109;-78
2021/01/12 12:09:40;;;;;;;168.23;72.30;;;2.50;99.90;;;;;;5074526;28;20020;-77
2021/01/12 12:12:06;;;;;;;125.88;55.10;;;2.60;99.90;;;;;;5053007;28;20048;-77
2021/01/12 12:14:32;;;;;;;115.53;52.05;;;2.60;99.90;;;;;;5054564;28;20484;-77
2021/01/12 12:16:58;;;;;;;117.63;53.20;;;3.00;99.90;;;;;;5054675;28;20059;-78
2021/01/12 12:19:28;;;;;;;161.15;75.28;;;3.30;99.90;;;;;;5036128;28;20033;-78
2021/01/12 12:21:55;;;;;;;141.02;59.05;;;3.20;99.90;;;;;;5054461;28;20025;-77
2021/01/12 12:24:23;;;;;;;167.70;75.82;;;3.20;99.90;;;;;;5036331;28;20082;-77
2021/01/12 12:26:50;;;;;;;115.30;52.17;;;3.00;99.90;;;;;;5053291;28;20017;-78
2021/01/12 12:29:16;;;;;;;177.00;77.80;;;2.90;99.90;;;;;;5054086;28;20029;-76